EZY3278 LIMC-EGPH
Flight info
| Callsign | EZY3278 |
|---|---|
| Flight time | N/A |
| Altitude | 34000 |
| Route | AOSTA DCT ORSUD DCT MOLUS DCT IBODI DCT GOTED DCT TRO DCT CLM DCT KOPOR DCT VESAN DCT RATUK DCT SOVAT DCT INPIP |
| Aircraft | A320/M-SDE3FGHIRWY/LB1 |
Departure
| Time | N/A |
|---|---|
| Airport | Milan Malpensa International Airport (LIMC) |
Arrival
| Time | 2026-04-25 19:35 |
|---|---|
| Airport | Edinburgh Airport (EGPH) |
| Time | Latitude | Longitude | Altitude | Speed | Heading |
|---|---|---|---|---|---|
| 2026-04-25 18:08 | 48.12872 | 4.22112 | 34144 ft | 423 kts | 304° |
| 2026-04-25 18:08 | 48.14584 | 4.18528 | 34145 ft | 423 kts | 303° |
| 2026-04-25 18:09 | 48.17976 | 4.11408 | 34147 ft | 423 kts | 303° |
| 2026-04-25 18:09 | 48.21384 | 4.04229 | 34143 ft | 422 kts | 303° |
| 2026-04-25 18:10 | 48.24795 | 3.97053 | 34142 ft | 423 kts | 306° |
| 2026-04-25 18:10 | 48.28791 | 3.90543 | 34141 ft | 425 kts | 311° |
| 2026-04-25 18:11 | 48.32844 | 3.84173 | 34143 ft | 425 kts | 311° |
| 2026-04-25 18:11 | 48.36922 | 3.77742 | 34142 ft | 425 kts | 311° |
| 2026-04-25 18:12 | 48.40989 | 3.71302 | 34145 ft | 425 kts | 311° |
| 2026-04-25 18:12 | 48.45049 | 3.64845 | 34143 ft | 424 kts | 311° |
| 2026-04-25 18:13 | 48.49074 | 3.58426 | 34143 ft | 424 kts | 311° |
| 2026-04-25 18:13 | 48.53130 | 3.51959 | 34144 ft | 424 kts | 311° |
| 2026-04-25 18:14 | 48.59206 | 3.42248 | 34150 ft | 424 kts | 311° |
| 2026-04-25 18:14 | 48.63254 | 3.35752 | 34151 ft | 424 kts | 310° |
| 2026-04-25 18:15 | 48.67262 | 3.29285 | 34153 ft | 424 kts | 310° |
| 2026-04-25 18:15 | 48.71294 | 3.22766 | 34144 ft | 424 kts | 310° |
| 2026-04-25 18:16 | 48.75327 | 3.16247 | 34144 ft | 424 kts | 310° |
| 2026-04-25 18:17 | 48.81367 | 3.06446 | 34152 ft | 424 kts | 310° |
| 2026-04-25 18:17 | 48.85679 | 3.00413 | 34145 ft | 428 kts | 323° |
| 2026-04-25 18:18 | 48.90834 | 2.95817 | 34164 ft | 430 kts | 327° |
| 2026-04-25 18:18 | 48.96035 | 2.91291 | 34160 ft | 430 kts | 327° |
| 2026-04-25 18:19 | 49.01227 | 2.86746 | 34160 ft | 431 kts | 327° |
| 2026-04-25 18:19 | 49.06382 | 2.82208 | 34166 ft | 431 kts | 326° |
| 2026-04-25 18:20 | 49.11565 | 2.77629 | 34164 ft | 431 kts | 326° |
| 2026-04-25 18:20 | 49.16753 | 2.73047 | 34179 ft | 431 kts | 326° |
| 2026-04-25 18:21 | 49.21942 | 2.68461 | 34180 ft | 431 kts | 326° |
| 2026-04-25 18:21 | 49.27121 | 2.63863 | 34176 ft | 430 kts | 326° |
| 2026-04-25 18:22 | 49.32262 | 2.59296 | 34177 ft | 430 kts | 326° |
| 2026-04-25 18:22 | 49.37432 | 2.54685 | 34192 ft | 430 kts | 326° |
| 2026-04-25 18:23 | 49.42596 | 2.50059 | 34190 ft | 430 kts | 326° |
| 2026-04-25 18:23 | 49.47765 | 2.45428 | 34187 ft | 430 kts | 326° |
| 2026-04-25 18:24 | 49.53110 | 2.41387 | 34186 ft | 436 kts | 339° |
| 2026-04-25 18:24 | 49.58941 | 2.38738 | 34184 ft | 437 kts | 340° |
| 2026-04-25 18:25 | 49.64776 | 2.36086 | 34187 ft | 437 kts | 340° |
| 2026-04-25 18:25 | 49.70620 | 2.33423 | 34190 ft | 438 kts | 340° |
| 2026-04-25 18:26 | 49.76424 | 2.30787 | 34188 ft | 438 kts | 340° |
| 2026-04-25 18:26 | 49.82261 | 2.28118 | 34192 ft | 437 kts | 340° |
| 2026-04-25 18:27 | 49.88091 | 2.25429 | 34200 ft | 437 kts | 340° |
| 2026-04-25 18:27 | 49.93917 | 2.22750 | 34197 ft | 436 kts | 340° |
| 2026-04-25 18:28 | 49.99733 | 2.20070 | 34198 ft | 436 kts | 340° |
| 2026-04-25 18:28 | 50.05501 | 2.17404 | 34204 ft | 435 kts | 340° |
| 2026-04-25 18:29 | 50.14196 | 2.13382 | 34202 ft | 435 kts | 341° |
| 2026-04-25 18:30 | 50.25999 | 2.07881 | 34200 ft | 444 kts | 341° |
| 2026-04-25 18:30 | 50.31873 | 2.05134 | 34199 ft | 443 kts | 341° |
| 2026-04-25 18:31 | 50.37558 | 2.01557 | 34193 ft | 439 kts | 326° |
| 2026-04-25 18:31 | 50.42321 | 1.95671 | 34195 ft | 436 kts | 317° |
| 2026-04-25 18:32 | 50.46901 | 1.89423 | 34191 ft | 436 kts | 317° |
| 2026-04-25 18:32 | 50.51483 | 1.83170 | 34195 ft | 436 kts | 317° |
| 2026-04-25 18:33 | 50.56062 | 1.76908 | 34194 ft | 436 kts | 317° |
| 2026-04-25 18:33 | 50.60601 | 1.70668 | 34191 ft | 436 kts | 317° |
| 2026-04-25 18:34 | 50.65164 | 1.64376 | 34193 ft | 436 kts | 317° |
| 2026-04-25 18:34 | 50.69725 | 1.58073 | 34197 ft | 436 kts | 317° |
| 2026-04-25 18:35 | 50.74282 | 1.51759 | 34203 ft | 436 kts | 317° |
| 2026-04-25 18:35 | 50.78832 | 1.45436 | 34215 ft | 436 kts | 317° |
| 2026-04-25 18:36 | 50.83386 | 1.39105 | 34219 ft | 436 kts | 317° |
| 2026-04-25 18:36 | 50.87907 | 1.32795 | 34233 ft | 436 kts | 317° |
| 2026-04-25 18:37 | 50.92458 | 1.26424 | 34230 ft | 436 kts | 317° |
| 2026-04-25 18:37 | 50.96998 | 1.20034 | 34237 ft | 437 kts | 317° |
| 2026-04-25 18:38 | 51.01543 | 1.13630 | 34234 ft | 437 kts | 317° |
| 2026-04-25 18:38 | 51.06065 | 1.07273 | 34235 ft | 437 kts | 319° |
| 2026-04-25 18:39 | 51.11035 | 1.01662 | 34232 ft | 438 kts | 323° |
| 2026-04-25 18:39 | 51.16045 | 0.96129 | 34228 ft | 438 kts | 323° |
| 2026-04-25 18:40 | 51.21050 | 0.90562 | 34224 ft | 439 kts | 323° |
| 2026-04-25 18:40 | 51.26055 | 0.84990 | 34240 ft | 439 kts | 323° |
| 2026-04-25 18:41 | 51.31033 | 0.79432 | 34244 ft | 439 kts | 323° |
| 2026-04-25 18:41 | 51.36044 | 0.73830 | 34217 ft | 440 kts | 323° |
| 2026-04-25 18:42 | 51.39393 | 0.70081 | 34215 ft | 440 kts | 323° |
| 2026-04-25 18:42 | 51.45988 | 0.62671 | 34215 ft | 429 kts | 323° |
| 2026-04-25 18:43 | 51.50860 | 0.57182 | 34221 ft | 427 kts | 323° |
| 2026-04-25 18:43 | 51.55680 | 0.51724 | 34220 ft | 427 kts | 323° |
| 2026-04-25 18:44 | 51.60533 | 0.46232 | 34218 ft | 427 kts | 323° |
| 2026-04-25 18:44 | 51.65381 | 0.40720 | 34214 ft | 427 kts | 323° |
| 2026-04-25 18:45 | 51.70226 | 0.35190 | 34215 ft | 427 kts | 323° |
| 2026-04-25 18:45 | 51.75064 | 0.29650 | 34216 ft | 427 kts | 323° |
| 2026-04-25 18:46 | 51.79872 | 0.24144 | 34219 ft | 427 kts | 323° |
| 2026-04-25 18:46 | 51.84709 | 0.18592 | 34215 ft | 427 kts | 323° |
| 2026-04-25 18:47 | 51.89548 | 0.13018 | 34215 ft | 427 kts | 323° |
| 2026-04-25 18:47 | 51.94382 | 0.07428 | 34211 ft | 427 kts | 323° |
| 2026-04-25 18:48 | 51.99211 | 0.01825 | 34209 ft | 427 kts | 323° |
| 2026-04-25 18:48 | 52.04139 | -0.03458 | 34206 ft | 429 kts | 330° |
| 2026-04-25 18:49 | 52.09402 | -0.08037 | 34201 ft | 429 kts | 330° |
| 2026-04-25 18:49 | 52.14659 | -0.12646 | 34202 ft | 429 kts | 330° |
| 2026-04-25 18:50 | 52.19918 | -0.17269 | 34202 ft | 430 kts | 330° |
| 2026-04-25 18:50 | 52.25183 | -0.21897 | 34199 ft | 430 kts | 330° |
| 2026-04-25 18:51 | 52.28665 | -0.24972 | 34198 ft | 430 kts | 330° |
| 2026-04-25 18:51 | 52.35661 | -0.31177 | 34199 ft | 430 kts | 330° |
| 2026-04-25 18:52 | 52.40936 | -0.35862 | 34208 ft | 431 kts | 330° |
| 2026-04-25 18:52 | 52.46198 | -0.40550 | 34210 ft | 431 kts | 330° |
| 2026-04-25 18:53 | 52.51463 | -0.45250 | 34215 ft | 431 kts | 330° |
| 2026-04-25 18:53 | 52.56695 | -0.49932 | 34215 ft | 431 kts | 330° |
| 2026-04-25 18:54 | 52.64582 | -0.57036 | 34214 ft | 431 kts | 330° |
| 2026-04-25 18:55 | 52.69839 | -0.61766 | 34211 ft | 431 kts | 330° |
| 2026-04-25 18:55 | 52.75095 | -0.66518 | 34210 ft | 431 kts | 329° |
| 2026-04-25 18:56 | 52.80345 | -0.71286 | 34226 ft | 431 kts | 330° |
| 2026-04-25 18:56 | 52.85566 | -0.76033 | 34227 ft | 431 kts | 329° |
| 2026-04-25 18:57 | 52.90819 | -0.80829 | 34228 ft | 431 kts | 329° |
| 2026-04-25 18:57 | 52.96005 | -0.85842 | 34223 ft | 431 kts | 327° |
| 2026-04-25 18:58 | 53.01113 | -0.91068 | 34222 ft | 431 kts | 327° |
| 2026-04-25 18:58 | 53.08749 | -0.98891 | 34218 ft | 432 kts | 327° |
| 2026-04-25 18:59 | 53.19035 | -1.09302 | 34213 ft | 433 kts | 327° |
| 2026-04-25 19:00 | 53.26759 | -1.17180 | 34217 ft | 434 kts | 327° |
| 2026-04-25 19:01 | 53.34446 | -1.25090 | 34228 ft | 435 kts | 327° |
| 2026-04-25 19:01 | 53.39602 | -1.30395 | 34233 ft | 435 kts | 327° |
| 2026-04-25 19:02 | 53.47339 | -1.38376 | 34239 ft | 435 kts | 327° |
| 2026-04-25 19:03 | 53.53324 | -1.44571 | 34247 ft | 436 kts | 327° |
| 2026-04-25 19:03 | 53.60199 | -1.51721 | 34252 ft | 436 kts | 327° |
| 2026-04-25 19:04 | 53.67937 | -1.59809 | 34250 ft | 437 kts | 327° |
| 2026-04-25 19:05 | 53.78258 | -1.70669 | 34262 ft | 438 kts | 327° |
| 2026-04-25 19:06 | 53.83429 | -1.76123 | 34255 ft | 438 kts | 327° |
| 2026-04-25 19:06 | 53.91154 | -1.84298 | 34262 ft | 438 kts | 326° |
| 2026-04-25 19:07 | 53.98910 | -1.92537 | 34267 ft | 439 kts | 326° |
| 2026-04-25 19:08 | 54.06661 | -2.00805 | 34270 ft | 438 kts | 326° |
| 2026-04-25 19:09 | 54.15232 | -2.10008 | 34276 ft | 438 kts | 326° |
| 2026-04-25 19:10 | 54.24666 | -2.20186 | 34254 ft | 440 kts | 326° |
| 2026-04-25 19:10 | 54.29838 | -2.25790 | 34065 ft | 438 kts | 326° |
| 2026-04-25 19:10 | 54.32408 | -2.28578 | 33447 ft | 435 kts | 326° |
| 2026-04-25 19:11 | 54.34917 | -2.31308 | 32910 ft | 431 kts | 326° |
| 2026-04-25 19:11 | 54.37465 | -2.34090 | 32387 ft | 426 kts | 326° |
| 2026-04-25 19:11 | 54.39956 | -2.36810 | 31880 ft | 422 kts | 326° |
| 2026-04-25 19:11 | 54.42391 | -2.39466 | 31387 ft | 418 kts | 326° |
| 2026-04-25 19:12 | 54.44837 | -2.42135 | 30909 ft | 415 kts | 326° |
| 2026-04-25 19:12 | 54.47262 | -2.44784 | 30428 ft | 411 kts | 326° |
| 2026-04-25 19:12 | 54.49662 | -2.47413 | 29896 ft | 408 kts | 326° |
| 2026-04-25 19:12 | 54.52040 | -2.50026 | 29363 ft | 404 kts | 326° |
| 2026-04-25 19:13 | 54.54396 | -2.52618 | 28843 ft | 400 kts | 326° |
| 2026-04-25 19:13 | 54.56732 | -2.55193 | 28324 ft | 396 kts | 325° |
| 2026-04-25 19:13 | 54.59024 | -2.57724 | 27844 ft | 393 kts | 325° |
| 2026-04-25 19:13 | 54.61333 | -2.60279 | 27352 ft | 390 kts | 325° |
| 2026-04-25 19:14 | 54.63574 | -2.62761 | 26883 ft | 387 kts | 325° |
| 2026-04-25 19:14 | 54.64338 | -2.63608 | 26727 ft | 385 kts | 325° |
| 2026-04-25 19:14 | 54.68067 | -2.67742 | 26156 ft | 381 kts | 325° |
| 2026-04-25 19:14 | 54.70290 | -2.70208 | 25708 ft | 379 kts | 325° |
| 2026-04-25 19:15 | 54.72497 | -2.72659 | 25267 ft | 376 kts | 325° |
| 2026-04-25 19:15 | 54.74690 | -2.75098 | 24833 ft | 373 kts | 325° |
| 2026-04-25 19:15 | 54.76863 | -2.77515 | 24414 ft | 370 kts | 325° |
| 2026-04-25 19:15 | 54.79019 | -2.79918 | 23991 ft | 367 kts | 325° |
| 2026-04-25 19:16 | 54.81157 | -2.82313 | 23526 ft | 364 kts | 325° |
| 2026-04-25 19:16 | 54.83273 | -2.84690 | 23125 ft | 359 kts | 324° |
| 2026-04-25 19:16 | 54.85287 | -2.86946 | 22969 ft | 339 kts | 324° |
| 2026-04-25 19:16 | 54.87240 | -2.89091 | 22494 ft | 328 kts | 328° |
| 2026-04-25 19:17 | 54.89283 | -2.90797 | 21878 ft | 324 kts | 335° |
| 2026-04-25 19:17 | 54.91355 | -2.92289 | 21201 ft | 321 kts | 335° |
| 2026-04-25 19:17 | 54.93411 | -2.93772 | 20544 ft | 318 kts | 335° |
| 2026-04-25 19:17 | 54.95449 | -2.95244 | 19908 ft | 316 kts | 335° |
| 2026-04-25 19:18 | 54.97474 | -2.96705 | 19290 ft | 314 kts | 335° |
| 2026-04-25 19:18 | 54.99481 | -2.98159 | 18697 ft | 312 kts | 335° |
| 2026-04-25 19:18 | 55.01476 | -2.99609 | 18051 ft | 309 kts | 335° |
| 2026-04-25 19:18 | 55.03427 | -3.01032 | 17404 ft | 307 kts | 335° |
| 2026-04-25 19:19 | 55.05388 | -3.02463 | 16791 ft | 304 kts | 335° |
| 2026-04-25 19:19 | 55.07337 | -3.03883 | 16189 ft | 302 kts | 335° |
| 2026-04-25 19:19 | 55.09268 | -3.05290 | 15606 ft | 300 kts | 335° |
| 2026-04-25 19:19 | 55.09918 | -3.05764 | 15413 ft | 299 kts | 335° |
| 2026-04-25 19:20 | 55.13092 | -3.08086 | 14484 ft | 296 kts | 335° |
| 2026-04-25 19:20 | 55.14985 | -3.09471 | 13920 ft | 294 kts | 335° |
| 2026-04-25 19:20 | 55.16864 | -3.10845 | 13320 ft | 291 kts | 335° |
| 2026-04-25 19:20 | 55.18701 | -3.12187 | 12744 ft | 289 kts | 335° |
| 2026-04-25 19:21 | 55.20541 | -3.13537 | 12174 ft | 286 kts | 335° |
| 2026-04-25 19:21 | 55.24177 | -3.16213 | 11052 ft | 280 kts | 335° |
| 2026-04-25 19:21 | 55.25967 | -3.17537 | 10498 ft | 278 kts | 335° |
| 2026-04-25 19:22 | 55.27741 | -3.18848 | 9917 ft | 276 kts | 336° |
| 2026-04-25 19:22 | 55.29569 | -3.19812 | 9291 ft | 274 kts | 348° |
| 2026-04-25 19:22 | 55.33283 | -3.20850 | 8318 ft | 267 kts | 338° |
| 2026-04-25 19:23 | 55.34972 | -3.22073 | 8254 ft | 259 kts | 335° |
| 2026-04-25 19:23 | 55.38255 | -3.24580 | 8263 ft | 259 kts | 334° |
| 2026-04-25 19:23 | 55.39911 | -3.25842 | 8265 ft | 259 kts | 334° |
| 2026-04-25 19:24 | 55.41565 | -3.27103 | 8264 ft | 259 kts | 335° |
| 2026-04-25 19:24 | 55.43219 | -3.28369 | 8235 ft | 259 kts | 334° |
| 2026-04-25 19:24 | 55.46493 | -3.30879 | 7520 ft | 255 kts | 335° |
| 2026-04-25 19:25 | 55.49725 | -3.33365 | 6853 ft | 251 kts | 335° |
| 2026-04-25 19:25 | 55.51296 | -3.34575 | 6498 ft | 250 kts | 335° |
| 2026-04-25 19:25 | 55.52887 | -3.35807 | 6152 ft | 248 kts | 334° |
| 2026-04-25 19:26 | 55.54459 | -3.37023 | 5991 ft | 247 kts | 335° |
| 2026-04-25 19:26 | 55.56030 | -3.38240 | 5993 ft | 247 kts | 334° |
| 2026-04-25 19:26 | 55.57607 | -3.39462 | 5995 ft | 247 kts | 335° |
| 2026-04-25 19:26 | 55.59183 | -3.40680 | 5998 ft | 247 kts | 334° |
| 2026-04-25 19:27 | 55.60762 | -3.41898 | 5998 ft | 248 kts | 335° |
| 2026-04-25 19:27 | 55.61273 | -3.42292 | 5999 ft | 247 kts | 334° |
| 2026-04-25 19:27 | 55.63893 | -3.44312 | 6000 ft | 247 kts | 334° |
| 2026-04-25 19:27 | 55.65446 | -3.45510 | 5995 ft | 236 kts | 334° |
| 2026-04-25 19:28 | 55.66926 | -3.46645 | 5979 ft | 229 kts | 334° |
| 2026-04-25 19:28 | 55.68382 | -3.47749 | 5676 ft | 227 kts | 334° |
| 2026-04-25 19:28 | 55.69834 | -3.48848 | 5332 ft | 227 kts | 334° |
| 2026-04-25 19:28 | 55.71288 | -3.49944 | 4995 ft | 227 kts | 334° |
| 2026-04-25 19:29 | 55.72741 | -3.51039 | 4621 ft | 227 kts | 334° |
| 2026-04-25 19:29 | 55.74191 | -3.52141 | 4196 ft | 227 kts | 335° |
| 2026-04-25 19:29 | 55.75635 | -3.53261 | 3758 ft | 227 kts | 335° |
| 2026-04-25 19:29 | 55.77057 | -3.54394 | 3332 ft | 227 kts | 335° |
| 2026-04-25 19:30 | 55.78025 | -3.55184 | 3071 ft | 226 kts | 335° |
| 2026-04-25 19:30 | 55.79868 | -3.56741 | 2960 ft | 215 kts | 334° |
| 2026-04-25 19:30 | 55.81193 | -3.57881 | 2709 ft | 211 kts | 335° |
| 2026-04-25 19:30 | 55.82494 | -3.59042 | 2531 ft | 207 kts | 335° |
| 2026-04-25 19:31 | 55.83744 | -3.60182 | 2499 ft | 198 kts | 336° |
| 2026-04-25 19:31 | 55.85049 | -3.60693 | 2507 ft | 191 kts | 5° |
| 2026-04-25 19:31 | 55.86324 | -3.60235 | 2511 ft | 186 kts | 26° |
| 2026-04-25 19:31 | 55.87389 | -3.59060 | 2549 ft | 172 kts | 45° |
| 2026-04-25 19:32 | 55.87900 | -3.58053 | 2519 ft | 159 kts | 58° |
| 2026-04-25 19:32 | 55.88469 | -3.56429 | 2417 ft | 150 kts | 62° |
| 2026-04-25 19:32 | 55.89177 | -3.54344 | 2169 ft | 147 kts | 62° |
| 2026-04-25 19:32 | 55.89355 | -3.53822 | 2098 ft | 146 kts | 62° |
| 2026-04-25 19:33 | 55.90221 | -3.51290 | 1816 ft | 145 kts | 61° |
| 2026-04-25 19:33 | 55.90562 | -3.50287 | 1706 ft | 142 kts | 62° |
| 2026-04-25 19:33 | 55.91073 | -3.48790 | 1472 ft | 140 kts | 61° |
| 2026-04-25 19:33 | 55.91575 | -3.47322 | 1301 ft | 138 kts | 62° |
| 2026-04-25 19:34 | 55.92078 | -3.45843 | 1072 ft | 139 kts | 60° |
| 2026-04-25 19:34 | 55.92744 | -3.43887 | 809 ft | 139 kts | 60° |
| 2026-04-25 19:34 | 55.93246 | -3.42410 | 619 ft | 138 kts | 59° |
| 2026-04-25 19:34 | 55.93732 | -3.40985 | 399 ft | 133 kts | 58° |
| 2026-04-25 19:35 | 55.94051 | -3.40046 | 306 ft | 135 kts | 59° |
| 2026-04-25 19:35 | 55.94542 | -3.38600 | 149 ft | 135 kts | 59° |
| 2026-04-25 19:35 | 55.94971 | -3.37339 | 113 ft | 95 kts | 59° |
| 2026-04-25 19:35 | 55.95201 | -3.36663 | 114 ft | 20 kts | 57° |
| 2026-04-25 19:36 | 55.95253 | -3.36494 | 109 ft | 18 kts | 63° |
| 2026-04-25 19:36 | 55.95213 | -3.36373 | 107 ft | 9 kts | 148° |
| 2026-04-25 19:36 | 55.95170 | -3.36326 | 109 ft | 2 kts | 149° |
| 2026-04-25 19:36 | 55.95163 | -3.36321 | 109 ft | 1 kts | 157° |
| 2026-04-25 19:37 | 55.95161 | -3.36320 | 109 ft | 1 kts | 160° |
| 2026-04-25 19:37 | 55.95142 | -3.36316 | 109 ft | 2 kts | 182° |
| 2026-04-25 19:37 | 55.95132 | -3.36321 | 109 ft | 1 kts | 198° |
| 2026-04-25 19:37 | 55.95107 | -3.36362 | 110 ft | 6 kts | 231° |
| 2026-04-25 19:38 | 55.95048 | -3.36393 | 110 ft | 12 kts | 177° |
| 2026-04-25 19:38 | 55.94985 | -3.36488 | 107 ft | 12 kts | 239° |
| 2026-04-25 19:38 | 55.94933 | -3.36523 | 104 ft | 10 kts | 157° |
| 2026-04-25 19:38 | 55.94907 | -3.36497 | 101 ft | 3 kts | 148° |
| 2026-04-25 19:39 | 55.94903 | -3.36493 | 101 ft | 0 kts | 148° |